sensor_id;sensor_type;location;lat;lon;timestamp;P1;durP1;ratioP1;P2;durP2;ratioP2
6475;SDS011;3271;51.910;5.840;2024-02-16T00:01:31;1.75;;;1.55;;
6475;SDS011;3271;51.910;5.840;2024-02-16T00:03:57;2.72;;;1.92;;
6475;SDS011;3271;51.910;5.840;2024-02-16T00:06:23;3.75;;;1.88;;
6475;SDS011;3271;51.910;5.840;2024-02-16T00:08:49;4.43;;;2.30;;
6475;SDS011;3271;51.910;5.840;2024-02-16T00:11:15;2.42;;;2.03;;
6475;SDS011;3271;51.910;5.840;2024-02-16T00:13:41;2.90;;;1.83;;
6475;SDS011;3271;51.910;5.840;2024-02-16T00:16:07;3.50;;;1.80;;
6475;SDS011;3271;51.910;5.840;2024-02-16T00:18:33;2.17;;;1.98;;
6475;SDS011;3271;51.910;5.840;2024-02-16T00:20:59;2.78;;;1.92;;
6475;SDS011;3271;51.910;5.840;2024-02-16T00:23:26;3.13;;;2.03;;
6475;SDS011;3271;51.910;5.840;2024-02-16T00:25:52;1.98;;;1.77;;
6475;SDS011;3271;51.910;5.840;2024-02-16T00:28:18;2.22;;;2.03;;
6475;SDS011;3271;51.910;5.840;2024-02-16T00:30:44;3.05;;;1.90;;
6475;SDS011;3271;51.910;5.840;2024-02-16T00:33:12;2.85;;;2.05;;
6475;SDS011;3271;51.910;5.840;2024-02-16T00:35:37;1.85;;;1.73;;
6475;SDS011;3271;51.910;5.840;2024-02-16T00:38:03;2.72;;;1.98;;
6475;SDS011;3271;51.910;5.840;2024-02-16T00:40:29;3.65;;;2.25;;
6475;SDS011;3271;51.910;5.840;2024-02-16T00:42:55;4.10;;;2.25;;
6475;SDS011;3271;51.910;5.840;2024-02-16T00:45:21;2.03;;;1.75;;
6475;SDS011;3271;51.910;5.840;2024-02-16T00:47:47;2.47;;;1.98;;
6475;SDS011;3271;51.910;5.840;2024-02-16T00:50:14;3.53;;;2.08;;
6475;SDS011;3271;51.910;5.840;2024-02-16T00:52:40;3.15;;;2.05;;
6475;SDS011;3271;51.910;5.840;2024-02-16T00:55:07;2.30;;;2.10;;
6475;SDS011;3271;51.910;5.840;2024-02-16T00:57:33;2.92;;;1.77;;
6475;SDS011;3271;51.910;5.840;2024-02-16T00:59:59;2.67;;;1.90;;
6475;SDS011;3271;51.910;5.840;2024-02-16T01:02:25;3.13;;;2.20;;
6475;SDS011;3271;51.910;5.840;2024-02-16T01:04:51;2.92;;;2.40;;
6475;SDS011;3271;51.910;5.840;2024-02-16T01:07:17;3.92;;;2.13;;
6475;SDS011;3271;51.910;5.840;2024-02-16T01:09:43;6.13;;;2.63;;
6475;SDS011;3271;51.910;5.840;2024-02-16T01:12:09;3.05;;;2.03;;
6475;SDS011;3271;51.910;5.840;2024-02-16T01:14:35;2.42;;;2.17;;
6475;SDS011;3271;51.910;5.840;2024-02-16T01:17:01;2.75;;;1.83;;
6475;SDS011;3271;51.910;5.840;2024-02-16T01:19:28;3.28;;;1.95;;
6475;SDS011;3271;51.910;5.840;2024-02-16T01:21:55;6.38;;;2.83;;
6475;SDS011;3271;51.910;5.840;2024-02-16T01:24:23;3.03;;;1.90;;
6475;SDS011;3271;51.910;5.840;2024-02-16T01:26:48;2.53;;;2.08;;
6475;SDS011;3271;51.910;5.840;2024-02-16T01:29:14;3.03;;;2.08;;
6475;SDS011;3271;51.910;5.840;2024-02-16T01:31:40;1.90;;;1.80;;
6475;SDS011;3271;51.910;5.840;2024-02-16T01:34:06;4.93;;;2.05;;
6475;SDS011;3271;51.910;5.840;2024-02-16T01:36:32;3.75;;;1.70;;
6475;SDS011;3271;51.910;5.840;2024-02-16T01:38:58;2.80;;;2.10;;
6475;SDS011;3271;51.910;5.840;2024-02-16T01:41:24;3.42;;;2.30;;
6475;SDS011;3271;51.910;5.840;2024-02-16T01:43:53;4.13;;;2.33;;
6475;SDS011;3271;51.910;5.840;2024-02-16T01:46:22;3.55;;;2.20;;
6475;SDS011;3271;51.910;5.840;2024-02-16T01:48:48;3.60;;;2.30;;
6475;SDS011;3271;51.910;5.840;2024-02-16T01:51:15;2.78;;;1.92;;
6475;SDS011;3271;51.910;5.840;2024-02-16T01:53:41;2.70;;;2.40;;
6475;SDS011;3271;51.910;5.840;2024-02-16T01:56:07;4.35;;;2.35;;
6475;SDS011;3271;51.910;5.840;2024-02-16T01:58:34;3.55;;;2.35;;
6475;SDS011;3271;51.910;5.840;2024-02-16T02:01:00;2.95;;;2.00;;
6475;SDS011;3271;51.910;5.840;2024-02-16T02:03:26;3.60;;;2.28;;
6475;SDS011;3271;51.910;5.840;2024-02-16T02:05:52;2.22;;;1.92;;
6475;SDS011;3271;51.910;5.840;2024-02-16T02:08:20;3.50;;;2.15;;
6475;SDS011;3271;51.910;5.840;2024-02-16T02:10:46;2.95;;;2.15;;
6475;SDS011;3271;51.910;5.840;2024-02-16T02:13:12;4.47;;;2.30;;
6475;SDS011;3271;51.910;5.840;2024-02-16T02:15:40;1.85;;;1.73;;
6475;SDS011;3271;51.910;5.840;2024-02-16T02:18:06;4.18;;;2.15;;
6475;SDS011;3271;51.910;5.840;2024-02-16T02:20:32;4.07;;;2.50;;
6475;SDS011;3271;51.910;5.840;2024-02-16T02:22:58;2.22;;;2.03;;
6475;SDS011;3271;51.910;5.840;2024-02-16T02:25:24;3.22;;;2.00;;
6475;SDS011;3271;51.910;5.840;2024-02-16T02:27:53;3.70;;;2.42;;
6475;SDS011;3271;51.910;5.840;2024-02-16T02:30:19;3.83;;;2.40;;
6475;SDS011;3271;51.910;5.840;2024-02-16T02:32:46;2.40;;;2.20;;
6475;SDS011;3271;51.910;5.840;2024-02-16T02:35:12;2.50;;;2.20;;
6475;SDS011;3271;51.910;5.840;2024-02-16T02:37:39;3.08;;;2.20;;
6475;SDS011;3271;51.910;5.840;2024-02-16T02:40:06;4.50;;;2.22;;
6475;SDS011;3271;51.910;5.840;2024-02-16T02:42:33;2.45;;;1.90;;
6475;SDS011;3271;51.910;5.840;2024-02-16T02:44:59;2.22;;;1.77;;
6475;SDS011;3271;51.910;5.840;2024-02-16T02:47:25;2.85;;;2.03;;
6475;SDS011;3271;51.910;5.840;2024-02-16T02:49:51;2.97;;;1.98;;
6475;SDS011;3271;51.910;5.840;2024-02-16T02:52:17;2.70;;;2.10;;
6475;SDS011;3271;51.910;5.840;2024-02-16T02:54:43;4.13;;;2.03;;
6475;SDS011;3271;51.910;5.840;2024-02-16T02:57:09;2.80;;;2.50;;
6475;SDS011;3271;51.910;5.840;2024-02-16T02:59:35;4.25;;;2.33;;
6475;SDS011;3271;51.910;5.840;2024-02-16T03:02:01;2.20;;;1.95;;
6475;SDS011;3271;51.910;5.840;2024-02-16T03:04:27;5.20;;;2.17;;
6475;SDS011;3271;51.910;5.840;2024-02-16T03:06:53;2.45;;;2.10;;
6475;SDS011;3271;51.910;5.840;2024-02-16T03:09:19;5.03;;;2.50;;
6475;SDS011;3271;51.910;5.840;2024-02-16T03:11:45;3.10;;;2.38;;
6475;SDS011;3271;51.910;5.840;2024-02-16T03:14:11;2.53;;;2.08;;
6475;SDS011;3271;51.910;5.840;2024-02-16T03:16:38;3.38;;;2.53;;
6475;SDS011;3271;51.910;5.840;2024-02-16T03:19:07;3.90;;;2.20;;
6475;SDS011;3271;51.910;5.840;2024-02-16T03:21:34;2.42;;;2.22;;
6475;SDS011;3271;51.910;5.840;2024-02-16T03:24:01;2.45;;;2.15;;
6475;SDS011;3271;51.910;5.840;2024-02-16T03:26:27;2.33;;;2.10;;
6475;SDS011;3271;51.910;5.840;2024-02-16T03:28:53;2.88;;;2.25;;
6475;SDS011;3271;51.910;5.840;2024-02-16T03:31:20;3.47;;;2.80;;
6475;SDS011;3271;51.910;5.840;2024-02-16T03:33:47;3.80;;;2.13;;
6475;SDS011;3271;51.910;5.840;2024-02-16T03:36:13;2.15;;;1.95;;
6475;SDS011;3271;51.910;5.840;2024-02-16T03:38:43;4.65;;;2.45;;
6475;SDS011;3271;51.910;5.840;2024-02-16T03:41:12;4.40;;;2.30;;
6475;SDS011;3271;51.910;5.840;2024-02-16T03:43:42;3.80;;;2.42;;
6475;SDS011;3271;51.910;5.840;2024-02-16T03:46:08;2.97;;;2.33;;
6475;SDS011;3271;51.910;5.840;2024-02-16T03:48:34;3.85;;;2.50;;
6475;SDS011;3271;51.910;5.840;2024-02-16T03:51:00;3.72;;;2.58;;
6475;SDS011;3271;51.910;5.840;2024-02-16T03:53:28;4.25;;;2.42;;
6475;SDS011;3271;51.910;5.840;2024-02-16T03:55:54;3.13;;;2.08;;
6475;SDS011;3271;51.910;5.840;2024-02-16T03:58:21;4.20;;;2.55;;
6475;SDS011;3271;51.910;5.840;2024-02-16T04:00:47;3.35;;;2.53;;
6475;SDS011;3271;51.910;5.840;2024-02-16T04:03:17;2.97;;;2.40;;
6475;SDS011;3271;51.910;5.840;2024-02-16T04:05:44;2.92;;;2.22;;
6475;SDS011;3271;51.910;5.840;2024-02-16T04:08:10;3.45;;;2.30;;
6475;SDS011;3271;51.910;5.840;2024-02-16T04:10:36;3.95;;;2.60;;
6475;SDS011;3271;51.910;5.840;2024-02-16T04:13:02;2.70;;;2.50;;
6475;SDS011;3271;51.910;5.840;2024-02-16T04:15:28;2.10;;;1.95;;
6475;SDS011;3271;51.910;5.840;2024-02-16T04:17:54;2.97;;;2.47;;
6475;SDS011;3271;51.910;5.840;2024-02-16T04:20:20;3.00;;;2.60;;
6475;SDS011;3271;51.910;5.840;2024-02-16T04:22:46;2.67;;;1.92;;
6475;SDS011;3271;51.910;5.840;2024-02-16T04:25:12;2.63;;;2.42;;
6475;SDS011;3271;51.910;5.840;2024-02-16T04:27:38;3.53;;;2.90;;
6475;SDS011;3271;51.910;5.840;2024-02-16T04:30:04;4.63;;;2.60;;
6475;SDS011;3271;51.910;5.840;2024-02-16T04:32:31;3.33;;;2.40;;
6475;SDS011;3271;51.910;5.840;2024-02-16T04:34:58;2.20;;;1.90;;
6475;SDS011;3271;51.910;5.840;2024-02-16T04:37:24;2.70;;;2.28;;
6475;SDS011;3271;51.910;5.840;2024-02-16T04:39:50;2.45;;;2.03;;
6475;SDS011;3271;51.910;5.840;2024-02-16T04:42:17;3.58;;;2.33;;
6475;SDS011;3271;51.910;5.840;2024-02-16T04:44:43;3.70;;;2.58;;
6475;SDS011;3271;51.910;5.840;2024-02-16T04:47:09;2.53;;;2.33;;
6475;SDS011;3271;51.910;5.840;2024-02-16T04:49:35;4.15;;;3.35;;
6475;SDS011;3271;51.910;5.840;2024-02-16T04:52:02;3.75;;;2.35;;
6475;SDS011;3271;51.910;5.840;2024-02-16T04:54:28;3.08;;;2.17;;
6475;SDS011;3271;51.910;5.840;2024-02-16T04:56:53;2.97;;;1.90;;
6475;SDS011;3271;51.910;5.840;2024-02-16T04:59:19;2.35;;;1.92;;
6475;SDS011;3271;51.910;5.840;2024-02-16T05:01:46;3.78;;;2.40;;
6475;SDS011;3271;51.910;5.840;2024-02-16T05:04:12;3.40;;;3.10;;
6475;SDS011;3271;51.910;5.840;2024-02-16T05:06:42;5.00;;;2.63;;
6475;SDS011;3271;51.910;5.840;2024-02-16T05:09:08;2.67;;;2.35;;
6475;SDS011;3271;51.910;5.840;2024-02-16T05:11:34;4.00;;;2.90;;
6475;SDS011;3271;51.910;5.840;2024-02-16T05:14:00;3.88;;;2.35;;
6475;SDS011;3271;51.910;5.840;2024-02-16T05:16:27;3.85;;;2.42;;
6475;SDS011;3271;51.910;5.840;2024-02-16T05:18:54;3.92;;;3.00;;
6475;SDS011;3271;51.910;5.840;2024-02-16T05:21:21;2.50;;;2.30;;
6475;SDS011;3271;51.910;5.840;2024-02-16T05:23:47;2.40;;;1.90;;
6475;SDS011;3271;51.910;5.840;2024-02-16T05:26:13;2.70;;;2.50;;
6475;SDS011;3271;51.910;5.840;2024-02-16T05:28:39;3.28;;;2.78;;
6475;SDS011;3271;51.910;5.840;2024-02-16T05:31:14;4.95;;;2.88;;
6475;SDS011;3271;51.910;5.840;2024-02-16T05:33:42;3.22;;;2.75;;
6475;SDS011;3271;51.910;5.840;2024-02-16T05:36:08;2.83;;;2.55;;
6475;SDS011;3271;51.910;5.840;2024-02-16T05:38:34;3.50;;;2.78;;
6475;SDS011;3271;51.910;5.840;2024-02-16T05:41:05;3.03;;;2.72;;
6475;SDS011;3271;51.910;5.840;2024-02-16T05:43:31;4.45;;;2.35;;
6475;SDS011;3271;51.910;5.840;2024-02-16T05:45:58;2.35;;;2.15;;
6475;SDS011;3271;51.910;5.840;2024-02-16T05:48:24;3.58;;;2.78;;
6475;SDS011;3271;51.910;5.840;2024-02-16T05:50:52;2.85;;;2.13;;
6475;SDS011;3271;51.910;5.840;2024-02-16T05:53:18;3.45;;;2.42;;
6475;SDS011;3271;51.910;5.840;2024-02-16T05:55:44;3.75;;;2.65;;
6475;SDS011;3271;51.910;5.840;2024-02-16T05:58:12;2.80;;;2.42;;
6475;SDS011;3271;51.910;5.840;2024-02-16T06:00:38;2.65;;;2.45;;
6475;SDS011;3271;51.910;5.840;2024-02-16T06:03:04;3.10;;;2.58;;
6475;SDS011;3271;51.910;5.840;2024-02-16T06:05:30;3.75;;;2.70;;
6475;SDS011;3271;51.910;5.840;2024-02-16T06:07:58;5.03;;;2.72;;
6475;SDS011;3271;51.910;5.840;2024-02-16T06:10:24;3.42;;;2.25;;
6475;SDS011;3271;51.910;5.840;2024-02-16T06:12:51;3.78;;;3.03;;
6475;SDS011;3271;51.910;5.840;2024-02-16T06:15:17;4.68;;;2.30;;
6475;SDS011;3271;51.910;5.840;2024-02-16T06:17:43;4.13;;;2.72;;
6475;SDS011;3271;51.910;5.840;2024-02-16T06:20:09;5.55;;;2.63;;
6475;SDS011;3271;51.910;5.840;2024-02-16T06:22:36;5.07;;;2.45;;
6475;SDS011;3271;51.910;5.840;2024-02-16T06:25:02;5.32;;;2.90;;
6475;SDS011;3271;51.910;5.840;2024-02-16T06:27:28;3.85;;;2.67;;
6475;SDS011;3271;51.910;5.840;2024-02-16T06:29:54;3.40;;;2.85;;
6475;SDS011;3271;51.910;5.840;2024-02-16T06:32:20;4.78;;;3.75;;
6475;SDS011;3271;51.910;5.840;2024-02-16T06:34:46;3.17;;;2.33;;
6475;SDS011;3271;51.910;5.840;2024-02-16T06:37:12;3.75;;;2.63;;
6475;SDS011;3271;51.910;5.840;2024-02-16T06:39:38;3.13;;;2.50;;
6475;SDS011;3271;51.910;5.840;2024-02-16T06:42:05;3.17;;;2.63;;
6475;SDS011;3271;51.910;5.840;2024-02-16T06:44:31;3.20;;;2.95;;
6475;SDS011;3271;51.910;5.840;2024-02-16T06:46:58;3.58;;;2.80;;
6475;SDS011;3271;51.910;5.840;2024-02-16T06:49:24;4.05;;;2.80;;
6475;SDS011;3271;51.910;5.840;2024-02-16T06:51:50;2.92;;;2.60;;
6475;SDS011;3271;51.910;5.840;2024-02-16T06:54:16;3.00;;;2.58;;
6475;SDS011;3271;51.910;5.840;2024-02-16T06:56:42;6.55;;;3.38;;
6475;SDS011;3271;51.910;5.840;2024-02-16T06:59:09;4.97;;;3.33;;
6475;SDS011;3271;51.910;5.840;2024-02-16T07:01:36;3.22;;;2.80;;
6475;SDS011;3271;51.910;5.840;2024-02-16T07:04:02;4.63;;;3.08;;
6475;SDS011;3271;51.910;5.840;2024-02-16T07:06:28;4.63;;;2.63;;
6475;SDS011;3271;51.910;5.840;2024-02-16T07:08:57;2.75;;;2.55;;
6475;SDS011;3271;51.910;5.840;2024-02-16T07:11:23;4.03;;;3.40;;
6475;SDS011;3271;51.910;5.840;2024-02-16T07:13:49;7.03;;;3.15;;
6475;SDS011;3271;51.910;5.840;2024-02-16T07:16:15;4.20;;;3.25;;
6475;SDS011;3271;51.910;5.840;2024-02-16T07:18:41;6.60;;;2.88;;
6475;SDS011;3271;51.910;5.840;2024-02-16T07:21:07;3.92;;;3.17;;
6475;SDS011;3271;51.910;5.840;2024-02-16T07:23:34;3.17;;;2.88;;
6475;SDS011;3271;51.910;5.840;2024-02-16T07:26:00;4.18;;;2.75;;
6475;SDS011;3271;51.910;5.840;2024-02-16T07:28:27;3.50;;;3.05;;
6475;SDS011;3271;51.910;5.840;2024-02-16T07:30:53;4.05;;;2.80;;
6475;SDS011;3271;51.910;5.840;2024-02-16T07:33:20;3.83;;;3.08;;
6475;SDS011;3271;51.910;5.840;2024-02-16T07:35:46;3.78;;;3.03;;
6475;SDS011;3271;51.910;5.840;2024-02-16T07:38:12;4.55;;;2.85;;
6475;SDS011;3271;51.910;5.840;2024-02-16T07:40:38;2.85;;;2.55;;
6475;SDS011;3271;51.910;5.840;2024-02-16T07:43:16;3.53;;;3.05;;
6475;SDS011;3271;51.910;5.840;2024-02-16T07:45:43;3.30;;;2.33;;
6475;SDS011;3271;51.910;5.840;2024-02-16T07:48:09;3.00;;;2.70;;
6475;SDS011;3271;51.910;5.840;2024-02-16T07:50:35;3.65;;;2.72;;
6475;SDS011;3271;51.910;5.840;2024-02-16T07:53:01;5.03;;;3.10;;
6475;SDS011;3271;51.910;5.840;2024-02-16T07:55:27;3.80;;;3.08;;
6475;SDS011;3271;51.910;5.840;2024-02-16T07:57:53;4.35;;;2.85;;
6475;SDS011;3271;51.910;5.840;2024-02-16T08:00:19;23.55;;;15.65;;
6475;SDS011;3271;51.910;5.840;2024-02-16T08:02:45;5.35;;;4.82;;
6475;SDS011;3271;51.910;5.840;2024-02-16T08:05:11;7.57;;;3.65;;
6475;SDS011;3271;51.910;5.840;2024-02-16T08:07:41;5.50;;;4.90;;
6475;SDS011;3271;51.910;5.840;2024-02-16T08:10:10;3.58;;;3.28;;
6475;SDS011;3271;51.910;5.840;2024-02-16T08:12:37;3.13;;;2.80;;
6475;SDS011;3271;51.910;5.840;2024-02-16T08:15:04;5.03;;;3.22;;
6475;SDS011;3271;51.910;5.840;2024-02-16T08:17:32;3.50;;;3.15;;
6475;SDS011;3271;51.910;5.840;2024-02-16T08:19:58;3.67;;;3.28;;
6475;SDS011;3271;51.910;5.840;2024-02-16T08:22:37;3.83;;;3.33;;
6475;SDS011;3271;51.910;5.840;2024-02-16T08:27:53;4.32;;;3.80;;
6475;SDS011;3271;51.910;5.840;2024-02-16T08:30:19;3.92;;;3.10;;
6475;SDS011;3271;51.910;5.840;2024-02-16T08:32:45;6.47;;;3.00;;
6475;SDS011;3271;51.910;5.840;2024-02-16T08:35:13;5.32;;;2.95;;
6475;SDS011;3271;51.910;5.840;2024-02-16T08:37:42;2.78;;;2.55;;
6475;SDS011;3271;51.910;5.840;2024-02-16T08:40:08;4.53;;;3.03;;
6475;SDS011;3271;51.910;5.840;2024-02-16T08:42:39;4.72;;;3.17;;
6475;SDS011;3271;51.910;5.840;2024-02-16T08:45:05;5.50;;;3.17;;
6475;SDS011;3271;51.910;5.840;2024-02-16T08:47:31;4.55;;;3.10;;
6475;SDS011;3271;51.910;5.840;2024-02-16T08:49:57;5.63;;;3.03;;
6475;SDS011;3271;51.910;5.840;2024-02-16T08:52:23;3.88;;;3.10;;
6475;SDS011;3271;51.910;5.840;2024-02-16T08:54:49;4.60;;;3.03;;
6475;SDS011;3271;51.910;5.840;2024-02-16T08:57:15;4.63;;;3.60;;
6475;SDS011;3271;51.910;5.840;2024-02-16T08:59:41;4.07;;;3.13;;
6475;SDS011;3271;51.910;5.840;2024-02-16T09:02:07;4.78;;;3.08;;
6475;SDS011;3271;51.910;5.840;2024-02-16T09:04:33;3.67;;;3.25;;
6475;SDS011;3271;51.910;5.840;2024-02-16T09:06:59;6.32;;;3.42;;
6475;SDS011;3271;51.910;5.840;2024-02-16T09:09:25;4.50;;;3.13;;
6475;SDS011;3271;51.910;5.840;2024-02-16T09:11:51;3.45;;;3.03;;
6475;SDS011;3271;51.910;5.840;2024-02-16T09:14:18;5.78;;;3.45;;
6475;SDS011;3271;51.910;5.840;2024-02-16T09:16:44;5.72;;;3.85;;
6475;SDS011;3271;51.910;5.840;2024-02-16T09:19:10;4.75;;;3.30;;
6475;SDS011;3271;51.910;5.840;2024-02-16T09:21:36;7.78;;;4.90;;
6475;SDS011;3271;51.910;5.840;2024-02-16T09:24:02;5.88;;;3.70;;
6475;SDS011;3271;51.910;5.840;2024-02-16T09:26:29;4.95;;;3.47;;
6475;SDS011;3271;51.910;5.840;2024-02-16T09:28:56;5.28;;;3.38;;
6475;SDS011;3271;51.910;5.840;2024-02-16T09:31:22;5.13;;;3.45;;
6475;SDS011;3271;51.910;5.840;2024-02-16T09:33:48;6.32;;;3.60;;
6475;SDS011;3271;51.910;5.840;2024-02-16T09:36:16;5.20;;;3.65;;
6475;SDS011;3271;51.910;5.840;2024-02-16T09:38:42;3.97;;;3.28;;
6475;SDS011;3271;51.910;5.840;2024-02-16T09:41:08;4.07;;;3.22;;
6475;SDS011;3271;51.910;5.840;2024-02-16T09:43:34;6.85;;;4.20;;
6475;SDS011;3271;51.910;5.840;2024-02-16T09:46:00;5.72;;;3.28;;
6475;SDS011;3271;51.910;5.840;2024-02-16T09:48:27;8.68;;;4.10;;
6475;SDS011;3271;51.910;5.840;2024-02-16T09:50:53;5.32;;;4.03;;
6475;SDS011;3271;51.910;5.840;2024-02-16T09:53:20;4.38;;;3.17;;
6475;SDS011;3271;51.910;5.840;2024-02-16T09:55:47;4.82;;;4.28;;
6475;SDS011;3271;51.910;5.840;2024-02-16T09:58:14;5.40;;;3.70;;
6475;SDS011;3271;51.910;5.840;2024-02-16T10:00:47;5.22;;;3.63;;
6475;SDS011;3271;51.910;5.840;2024-02-16T10:03:23;9.00;;;4.55;;
6475;SDS011;3271;51.910;5.840;2024-02-16T10:05:50;5.88;;;3.40;;
6475;SDS011;3271;51.910;5.840;2024-02-16T10:08:16;5.90;;;4.00;;
6475;SDS011;3271;51.910;5.840;2024-02-16T10:10:43;4.80;;;4.22;;
6475;SDS011;3271;51.910;5.840;2024-02-16T10:13:09;5.03;;;4.00;;
6475;SDS011;3271;51.910;5.840;2024-02-16T10:15:36;5.18;;;3.90;;
6475;SDS011;3271;51.910;5.840;2024-02-16T10:18:06;5.30;;;4.13;;
6475;SDS011;3271;51.910;5.840;2024-02-16T10:20:32;4.55;;;3.80;;
6475;SDS011;3271;51.910;5.840;2024-02-16T10:23:08;4.43;;;3.55;;
6475;SDS011;3271;51.910;5.840;2024-02-16T10:25:35;7.50;;;4.45;;
6475;SDS011;3271;51.910;5.840;2024-02-16T10:28:03;8.60;;;4.45;;
6475;SDS011;3271;51.910;5.840;2024-02-16T10:30:30;6.57;;;4.53;;
6475;SDS011;3271;51.910;5.840;2024-02-16T10:32:57;6.55;;;4.35;;
6475;SDS011;3271;51.910;5.840;2024-02-16T10:35:27;6.88;;;4.28;;
6475;SDS011;3271;51.910;5.840;2024-02-16T10:37:54;6.68;;;4.28;;
6475;SDS011;3271;51.910;5.840;2024-02-16T10:40:22;5.53;;;4.20;;
6475;SDS011;3271;51.910;5.840;2024-02-16T10:42:51;8.00;;;4.60;;
6475;SDS011;3271;51.910;5.840;2024-02-16T10:45:17;6.13;;;3.45;;
6475;SDS011;3271;51.910;5.840;2024-02-16T10:47:44;6.25;;;4.32;;
6475;SDS011;3271;51.910;5.840;2024-02-16T10:50:10;7.70;;;4.30;;
6475;SDS011;3271;51.910;5.840;2024-02-16T10:52:38;6.72;;;4.78;;
6475;SDS011;3271;51.910;5.840;2024-02-16T10:55:05;7.57;;;4.25;;
6475;SDS011;3271;51.910;5.840;2024-02-16T10:57:31;7.18;;;4.57;;
6475;SDS011;3271;51.910;5.840;2024-02-16T10:59:58;7.20;;;4.05;;
6475;SDS011;3271;51.910;5.840;2024-02-16T11:02:24;4.78;;;4.13;;
6475;SDS011;3271;51.910;5.840;2024-02-16T11:04:52;6.72;;;5.45;;
6475;SDS011;3271;51.910;5.840;2024-02-16T11:07:19;6.72;;;5.00;;
6475;SDS011;3271;51.910;5.840;2024-02-16T11:09:45;7.10;;;5.38;;
6475;SDS011;3271;51.910;5.840;2024-02-16T11:12:12;5.88;;;4.88;;
6475;SDS011;3271;51.910;5.840;2024-02-16T11:14:41;7.28;;;5.15;;
6475;SDS011;3271;51.910;5.840;2024-02-16T11:17:11;5.03;;;4.53;;
6475;SDS011;3271;51.910;5.840;2024-02-16T11:19:41;7.60;;;5.63;;
6475;SDS011;3271;51.910;5.840;2024-02-16T11:22:08;8.10;;;4.97;;
6475;SDS011;3271;51.910;5.840;2024-02-16T11:24:35;6.38;;;4.68;;
6475;SDS011;3271;51.910;5.840;2024-02-16T11:27:02;7.35;;;4.82;;
6475;SDS011;3271;51.910;5.840;2024-02-16T11:29:32;8.65;;;5.55;;
6475;SDS011;3271;51.910;5.840;2024-02-16T11:31:59;7.13;;;5.30;;
6475;SDS011;3271;51.910;5.840;2024-02-16T11:34:26;8.10;;;5.60;;
6475;SDS011;3271;51.910;5.840;2024-02-16T11:36:53;6.68;;;5.35;;
6475;SDS011;3271;51.910;5.840;2024-02-16T11:39:19;8.07;;;5.63;;
6475;SDS011;3271;51.910;5.840;2024-02-16T11:41:45;7.35;;;5.25;;
6475;SDS011;3271;51.910;5.840;2024-02-16T11:44:12;8.40;;;5.40;;
6475;SDS011;3271;51.910;5.840;2024-02-16T11:46:41;7.53;;;5.95;;
6475;SDS011;3271;51.910;5.840;2024-02-16T11:49:07;9.43;;;5.47;;
6475;SDS011;3271;51.910;5.840;2024-02-16T11:51:33;7.25;;;5.57;;
6475;SDS011;3271;51.910;5.840;2024-02-16T11:54:00;8.20;;;5.95;;
6475;SDS011;3271;51.910;5.840;2024-02-16T11:56:26;7.43;;;5.65;;
6475;SDS011;3271;51.910;5.840;2024-02-16T11:58:52;6.18;;;5.30;;
6475;SDS011;3271;51.910;5.840;2024-02-16T12:01:18;11.63;;;5.68;;
6475;SDS011;3271;51.910;5.840;2024-02-16T12:03:46;9.77;;;5.78;;
6475;SDS011;3271;51.910;5.840;2024-02-16T12:06:19;5.53;;;4.95;;
6475;SDS011;3271;51.910;5.840;2024-02-16T12:08:46;6.35;;;5.68;;
6475;SDS011;3271;51.910;5.840;2024-02-16T12:11:12;6.78;;;5.80;;
6475;SDS011;3271;51.910;5.840;2024-02-16T12:13:39;6.18;;;5.30;;
6475;SDS011;3271;51.910;5.840;2024-02-16T12:16:05;6.28;;;5.68;;
6475;SDS011;3271;51.910;5.840;2024-02-16T12:18:34;6.00;;;5.05;;
6475;SDS011;3271;51.910;5.840;2024-02-16T12:21:04;5.45;;;4.95;;
6475;SDS011;3271;51.910;5.840;2024-02-16T12:23:35;6.13;;;4.70;;
6475;SDS011;3271;51.910;5.840;2024-02-16T12:26:02;5.47;;;5.03;;
6475;SDS011;3271;51.910;5.840;2024-02-16T12:28:28;11.77;;;5.18;;
6475;SDS011;3271;51.910;5.840;2024-02-16T12:30:57;5.63;;;4.90;;
6475;SDS011;3271;51.910;5.840;2024-02-16T12:33:24;5.13;;;4.45;;
6475;SDS011;3271;51.910;5.840;2024-02-16T12:35:50;4.70;;;4.22;;
6475;SDS011;3271;51.910;5.840;2024-02-16T12:38:16;4.80;;;4.40;;
6475;SDS011;3271;51.910;5.840;2024-02-16T12:40:44;5.97;;;4.70;;
6475;SDS011;3271;51.910;5.840;2024-02-16T12:43:11;5.85;;;4.07;;
6475;SDS011;3271;51.910;5.840;2024-02-16T12:45:37;4.53;;;4.13;;
6475;SDS011;3271;51.910;5.840;2024-02-16T12:48:03;4.72;;;4.30;;
6475;SDS011;3271;51.910;5.840;2024-02-16T12:50:30;4.60;;;4.20;;
6475;SDS011;3271;51.910;5.840;2024-02-16T12:53:05;4.22;;;3.92;;
6475;SDS011;3271;51.910;5.840;2024-02-16T12:55:31;4.85;;;4.40;;
6475;SDS011;3271;51.910;5.840;2024-02-16T12:57:58;6.70;;;4.72;;
6475;SDS011;3271;51.910;5.840;2024-02-16T13:00:23;4.88;;;4.47;;
6475;SDS011;3271;51.910;5.840;2024-02-16T13:02:50;5.38;;;4.68;;
6475;SDS011;3271;51.910;5.840;2024-02-16T13:05:16;4.82;;;4.32;;
6475;SDS011;3271;51.910;5.840;2024-02-16T13:10:24;5.65;;;5.05;;
6475;SDS011;3271;51.910;5.840;2024-02-16T13:12:50;5.93;;;5.32;;
6475;SDS011;3271;51.910;5.840;2024-02-16T13:15:16;6.65;;;6.00;;
6475;SDS011;3271;51.910;5.840;2024-02-16T13:17:42;6.13;;;5.53;;
6475;SDS011;3271;51.910;5.840;2024-02-16T13:20:10;6.05;;;5.50;;
6475;SDS011;3271;51.910;5.840;2024-02-16T13:22:36;7.05;;;6.38;;
6475;SDS011;3271;51.910;5.840;2024-02-16T13:25:07;6.30;;;5.70;;
6475;SDS011;3271;51.910;5.840;2024-02-16T13:27:33;8.30;;;6.50;;
6475;SDS011;3271;51.910;5.840;2024-02-16T13:29:59;7.00;;;6.40;;
6475;SDS011;3271;51.910;5.840;2024-02-16T13:32:26;7.53;;;6.82;;
6475;SDS011;3271;51.910;5.840;2024-02-16T13:34:52;8.98;;;6.55;;
6475;SDS011;3271;51.910;5.840;2024-02-16T13:37:18;6.70;;;6.00;;
6475;SDS011;3271;51.910;5.840;2024-02-16T13:39:53;7.80;;;6.03;;
6475;SDS011;3271;51.910;5.840;2024-02-16T13:47:55;5.45;;;4.97;;
6475;SDS011;3271;51.910;5.840;2024-02-16T13:50:24;6.10;;;5.25;;
6475;SDS011;3271;51.910;5.840;2024-02-16T13:52:51;5.72;;;4.72;;
6475;SDS011;3271;51.910;5.840;2024-02-16T13:55:17;5.38;;;4.88;;
6475;SDS011;3271;51.910;5.840;2024-02-16T13:57:43;5.13;;;4.72;;
6475;SDS011;3271;51.910;5.840;2024-02-16T14:00:09;5.03;;;4.40;;
6475;SDS011;3271;51.910;5.840;2024-02-16T14:02:35;4.25;;;3.85;;
6475;SDS011;3271;51.910;5.840;2024-02-16T14:05:01;4.30;;;3.90;;
6475;SDS011;3271;51.910;5.840;2024-02-16T14:07:27;3.22;;;3.00;;
6475;SDS011;3271;51.910;5.840;2024-02-16T14:09:53;3.40;;;3.10;;
6475;SDS011;3271;51.910;5.840;2024-02-16T14:12:19;3.17;;;2.90;;
6475;SDS011;3271;51.910;5.840;2024-02-16T14:14:45;3.30;;;3.00;;
6475;SDS011;3271;51.910;5.840;2024-02-16T14:17:11;3.40;;;3.20;;
6475;SDS011;3271;51.910;5.840;2024-02-16T14:19:37;3.08;;;2.88;;
6475;SDS011;3271;51.910;5.840;2024-02-16T14:22:03;2.50;;;2.30;;
6475;SDS011;3271;51.910;5.840;2024-02-16T14:24:31;2.60;;;2.40;;
6475;SDS011;3271;51.910;5.840;2024-02-16T14:26:57;3.88;;;2.60;;
6475;SDS011;3271;51.910;5.840;2024-02-16T14:29:24;2.40;;;2.20;;
6475;SDS011;3271;51.910;5.840;2024-02-16T14:31:50;2.75;;;2.30;;
6475;SDS011;3271;51.910;5.840;2024-02-16T14:34:16;2.55;;;2.35;;
6475;SDS011;3271;51.910;5.840;2024-02-16T14:36:42;2.40;;;2.20;;
6475;SDS011;3271;51.910;5.840;2024-02-16T14:39:08;2.95;;;2.13;;
6475;SDS011;3271;51.910;5.840;2024-02-16T14:41:36;1.98;;;1.88;;
6475;SDS011;3271;51.910;5.840;2024-02-16T14:44:02;2.83;;;2.22;;
6475;SDS011;3271;51.910;5.840;2024-02-16T14:46:28;2.75;;;2.55;;
6475;SDS011;3271;51.910;5.840;2024-02-16T14:48:54;4.65;;;3.10;;
6475;SDS011;3271;51.910;5.840;2024-02-16T14:51:20;3.03;;;2.40;;
6475;SDS011;3271;51.910;5.840;2024-02-16T14:53:46;2.53;;;2.33;;
6475;SDS011;3271;51.910;5.840;2024-02-16T14:56:13;2.60;;;2.40;;
6475;SDS011;3271;51.910;5.840;2024-02-16T14:58:40;1.98;;;1.77;;
6475;SDS011;3271;51.910;5.840;2024-02-16T15:01:06;2.95;;;2.22;;
6475;SDS011;3271;51.910;5.840;2024-02-16T15:03:34;2.17;;;2.08;;
6475;SDS011;3271;51.910;5.840;2024-02-16T15:06:00;2.20;;;2.00;;
6475;SDS011;3271;51.910;5.840;2024-02-16T15:08:27;2.13;;;2.00;;
6475;SDS011;3271;51.910;5.840;2024-02-16T15:10:53;2.40;;;2.15;;
6475;SDS011;3271;51.910;5.840;2024-02-16T15:13:19;2.53;;;2.00;;
6475;SDS011;3271;51.910;5.840;2024-02-16T15:15:45;2.58;;;2.38;;
6475;SDS011;3271;51.910;5.840;2024-02-16T15:18:11;3.15;;;2.85;;
6475;SDS011;3271;51.910;5.840;2024-02-16T15:20:37;5.28;;;3.15;;
6475;SDS011;3271;51.910;5.840;2024-02-16T15:23:03;5.53;;;4.60;;